createdAt,value
2023-01-13T00:00:13.727Z,16.27
2023-01-13T00:02:42.023Z,16.67
2023-01-13T00:05:10.709Z,16.83
2023-01-13T00:07:41.767Z,16.73
2023-01-13T00:10:13.654Z,15.20
2023-01-13T00:12:45.185Z,16.00
2023-01-13T00:15:14.473Z,16.53
2023-01-13T00:17:43.111Z,17.63
2023-01-13T00:20:12.922Z,17.20
2023-01-13T00:22:41.427Z,16.87
2023-01-13T00:25:11.334Z,16.83
2023-01-13T00:27:40.325Z,15.33
2023-01-13T00:30:11.821Z,15.43
2023-01-13T00:32:46.457Z,15.67
2023-01-13T00:35:14.663Z,15.90
2023-01-13T00:37:43.969Z,15.00
2023-01-13T00:40:17.806Z,13.97
2023-01-13T00:43:04.358Z,14.90
2023-01-13T00:45:33.185Z,16.35
2023-01-13T00:48:02.362Z,14.77
2023-01-13T00:50:30.832Z,13.73
2023-01-13T01:06:26.859Z,16.60
2023-01-13T01:08:55.702Z,15.70
2023-01-13T01:11:28.311Z,15.00
2023-01-13T01:13:56.788Z,15.87
2023-01-13T01:16:26.523Z,14.27
2023-01-13T01:18:54.477Z,16.43
2023-01-13T01:21:23.946Z,16.60
2023-01-13T01:23:53.025Z,16.70
2023-01-13T01:26:23.388Z,17.07
2023-01-13T01:28:50.877Z,16.33
2023-01-13T01:31:24.956Z,16.70
2023-01-13T01:33:53.929Z,16.73
2023-01-13T01:36:21.950Z,15.97
2023-01-13T01:38:49.417Z,15.40
2023-01-13T01:41:23.354Z,16.13
2023-01-13T01:44:00.599Z,15.73
2023-01-13T01:46:41.421Z,15.82
2023-01-13T01:49:27.111Z,18.07
2023-01-13T01:52:19.877Z,17.97
2023-01-13T01:54:57.661Z,17.57
2023-01-13T01:57:31.682Z,16.90
2023-01-13T01:59:59.539Z,17.80
2023-01-13T02:02:29.471Z,17.67
2023-01-13T02:04:58.056Z,17.60
2023-01-13T02:07:28.219Z,17.60
2023-01-13T02:09:56.819Z,16.97
2023-01-13T02:12:32.103Z,16.20
2023-01-13T02:15:10.850Z,16.63
2023-01-13T02:17:44.779Z,16.33
2023-01-13T02:20:30.367Z,16.13
2023-01-13T02:23:41.245Z,16.27
2023-01-13T02:26:23.778Z,15.83
2023-01-13T02:29:18.282Z,15.77
2023-01-13T02:31:46.481Z,16.33
2023-01-13T02:34:41.658Z,17.13
2023-01-13T02:37:20.346Z,17.97
2023-01-13T02:40:07.245Z,18.07
2023-01-13T02:42:54.592Z,17.60
2023-01-13T02:45:28.525Z,19.23
2023-01-13T02:47:57.318Z,19.13
2023-01-13T02:50:28.874Z,18.27
2023-01-13T02:53:16.051Z,19.87
2023-01-13T02:55:47.475Z,19.25
2023-01-13T02:58:18.303Z,18.97
2023-01-13T03:00:46.478Z,20.50
2023-01-13T03:03:14.858Z,20.13
2023-01-13T03:05:42.565Z,20.70
2023-01-13T03:09:01.524Z,20.43
2023-01-13T03:11:32.996Z,20.10
2023-01-13T03:14:29.068Z,19.80
2023-01-13T03:17:19.087Z,18.53
2023-01-13T03:19:58.215Z,18.73
2023-01-13T03:22:39.324Z,20.03
2023-01-13T03:25:13.484Z,19.50
2023-01-13T03:27:50.108Z,19.80
2023-01-13T03:30:41.372Z,18.80
2023-01-13T03:33:54.083Z,18.47
2023-01-13T03:36:23.187Z,19.97
2023-01-13T03:38:53.565Z,19.40
2023-01-13T03:41:28.041Z,18.67
2023-01-13T03:44:19.991Z,18.57
2023-01-13T03:47:05.356Z,18.03
2023-01-13T03:49:50.316Z,17.93
2023-01-13T03:52:21.082Z,18.27
2023-01-13T03:54:51.774Z,17.73
2023-01-13T03:57:20.741Z,18.37
2023-01-13T03:59:49.024Z,18.47
2023-01-13T04:02:58.392Z,18.07
2023-01-13T04:05:30.151Z,18.37
2023-01-13T04:08:03.252Z,19.13
2023-01-13T04:10:41.855Z,18.33
2023-01-13T04:13:11.206Z,19.67
2023-01-13T04:15:43.986Z,20.03
2023-01-13T04:18:22.471Z,19.73
2023-01-13T04:20:52.554Z,19.77
2023-01-13T04:23:22.927Z,17.47
2023-01-13T04:25:51.881Z,17.30
2023-01-13T04:28:20.496Z,17.93
2023-01-13T04:30:48.570Z,19.60
2023-01-13T04:33:17.031Z,18.57
2023-01-13T04:35:46.065Z,18.53
2023-01-13T04:38:16.266Z,19.90
2023-01-13T04:40:50.312Z,17.17
2023-01-13T04:43:18.955Z,17.47
2023-01-13T04:45:47.831Z,18.17
2023-01-13T04:48:16.952Z,18.87
2023-01-13T04:50:45.543Z,17.57
2023-01-13T04:53:14.487Z,17.50
2023-01-13T04:55:42.437Z,17.40
2023-01-13T04:58:10.354Z,17.70
2023-01-13T05:00:38.629Z,17.83
2023-01-13T05:03:07.619Z,18.97
2023-01-13T05:05:35.838Z,19.60
2023-01-13T05:08:04.628Z,18.03
2023-01-13T05:10:33.051Z,19.03
2023-01-13T05:13:22.054Z,18.40
2023-01-13T05:16:11.243Z,18.67
2023-01-13T05:18:39.831Z,18.10
2023-01-13T05:21:27.895Z,17.50
2023-01-13T05:24:14.495Z,18.97
2023-01-13T05:26:43.262Z,19.03
2023-01-13T05:29:12.182Z,18.80
2023-01-13T05:31:40.592Z,19.93
2023-01-13T05:34:08.952Z,19.83
2023-01-13T05:36:37.903Z,20.40
2023-01-13T05:39:06.360Z,20.23
2023-01-13T05:41:53.280Z,19.67
2023-01-13T05:44:22.425Z,20.63
2023-01-13T05:46:50.219Z,19.50
2023-01-13T05:49:18.491Z,19.47
2023-01-13T05:51:46.894Z,19.03
2023-01-13T05:54:15.691Z,19.17
2023-01-13T05:56:44.179Z,18.87
2023-01-13T05:59:13.080Z,19.10
2023-01-13T06:01:41.254Z,19.93
2023-01-13T06:04:09.685Z,19.63
2023-01-13T06:06:39.309Z,19.97
2023-01-13T06:09:08.944Z,19.73
2023-01-13T06:11:55.972Z,19.00
2023-01-13T06:14:25.611Z,18.63
2023-01-13T06:17:16.637Z,18.40
2023-01-13T06:19:51.468Z,18.03
2023-01-13T06:22:28.765Z,16.73
2023-01-13T06:25:00.852Z,17.50
2023-01-13T06:27:36.301Z,17.33
2023-01-13T06:30:05.646Z,18.03
2023-01-13T06:32:42.431Z,16.83
2023-01-13T06:35:13.011Z,18.50
2023-01-13T06:37:42.768Z,17.93
2023-01-13T06:40:12.908Z,18.97
2023-01-13T06:42:59.947Z,18.90
2023-01-13T06:45:27.444Z,18.92
2023-01-13T06:47:57.523Z,17.83
2023-01-13T06:50:26.704Z,16.37
2023-01-13T06:52:55.287Z,18.90
2023-01-13T06:55:24.148Z,18.07
2023-01-13T06:57:56.475Z,18.00
2023-01-13T07:00:24.058Z,16.80
2023-01-13T07:02:53.161Z,18.37
2023-01-13T07:05:21.834Z,17.87
2023-01-13T07:07:51.246Z,19.00
2023-01-13T07:10:22.608Z,19.37
2023-01-13T07:13:11.396Z,19.33
2023-01-13T07:15:40.602Z,20.80
2023-01-13T07:18:09.615Z,22.00
2023-01-13T07:20:41.482Z,20.40
2023-01-13T07:23:12.806Z,22.93
2023-01-13T07:25:41.315Z,22.13
2023-01-13T07:28:09.917Z,22.40
2023-01-13T07:30:40.951Z,21.93
2023-01-13T07:33:09.077Z,22.40
2023-01-13T07:35:38.680Z,22.00
2023-01-13T07:38:08.939Z,20.70
2023-01-13T07:40:37.658Z,20.73
2023-01-13T07:43:24.439Z,22.67
2023-01-13T07:46:21.345Z,23.07
2023-01-13T07:48:51.033Z,26.63
2023-01-13T07:51:19.580Z,26.80
2023-01-13T07:53:48.097Z,28.50
2023-01-13T07:56:16.135Z,19.93
2023-01-13T07:58:50.669Z,20.07
2023-01-13T08:01:19.313Z,21.33
2023-01-13T08:03:48.011Z,22.77
2023-01-13T08:06:16.908Z,22.60
2023-01-13T08:08:45.289Z,21.43
2023-01-13T08:11:13.705Z,21.30
2023-01-13T08:13:43.210Z,22.13
2023-01-13T08:16:14.154Z,21.93
2023-01-13T08:18:43.497Z,20.57
2023-01-13T08:21:12.519Z,19.90
2023-01-13T08:23:44.519Z,18.83
2023-01-13T08:26:15.320Z,19.40
2023-01-13T08:28:44.018Z,18.60
2023-01-13T08:31:17.214Z,17.33
2023-01-13T08:33:45.447Z,18.13
2023-01-13T08:36:14.037Z,18.30
2023-01-13T08:38:48.705Z,19.13
2023-01-13T08:41:40.593Z,18.90
2023-01-13T08:44:09.553Z,18.33
2023-01-13T08:46:43.209Z,18.03
2023-01-13T08:49:11.988Z,17.93
2023-01-13T08:51:43.456Z,18.87
2023-01-13T08:54:12.643Z,19.73
2023-01-13T08:56:43.005Z,17.83
2023-01-13T08:59:25.462Z,18.97
2023-01-13T09:01:57.111Z,18.47
2023-01-13T09:04:28.892Z,19.43
2023-01-13T09:07:00.583Z,19.93
2023-01-13T09:09:34.313Z,18.27
2023-01-13T09:12:21.082Z,18.87
2023-01-13T09:14:51.924Z,18.45
2023-01-13T09:17:20.486Z,18.40
2023-01-13T09:19:48.792Z,18.37
2023-01-13T09:22:18.060Z,18.13
2023-01-13T09:24:48.122Z,19.33
2023-01-13T09:27:16.788Z,18.20
2023-01-13T09:29:45.033Z,19.53
2023-01-13T09:32:14.416Z,19.90
2023-01-13T09:35:01.028Z,20.73
2023-01-13T09:37:35.354Z,19.33
2023-01-13T09:40:20.586Z,17.10
2023-01-13T09:43:11.581Z,18.23
2023-01-13T09:45:47.509Z,16.40
2023-01-13T09:48:20.623Z,17.87
2023-01-13T09:50:59.403Z,18.30
2023-01-13T09:53:33.152Z,18.07
2023-01-13T09:56:10.410Z,17.40
2023-01-13T09:58:43.978Z,18.90
2023-01-13T10:01:14.726Z,17.23
2023-01-13T10:03:43.452Z,17.83
2023-01-13T10:06:33.389Z,17.97
2023-01-13T10:09:02.399Z,17.03
2023-01-13T10:12:01.572Z,17.83
2023-01-13T10:15:04.577Z,18.37
2023-01-13T10:17:46.968Z,18.47
2023-01-13T10:20:24.924Z,17.90
2023-01-13T10:23:05.605Z,18.27
2023-01-13T10:26:07.464Z,17.50
2023-01-13T10:28:39.086Z,18.10
2023-01-13T10:31:14.796Z,19.00
2023-01-13T10:33:44.267Z,12.93
2023-01-13T10:36:16.289Z,17.87
2023-01-13T10:38:49.021Z,17.97
2023-01-13T10:41:16.415Z,17.57
2023-01-13T10:43:58.309Z,15.77
2023-01-13T10:46:27.306Z,16.27
2023-01-13T10:48:59.604Z,17.77
2023-01-13T10:51:39.792Z,17.40
2023-01-13T10:54:13.645Z,16.30
2023-01-13T10:56:43.689Z,15.97
2023-01-13T10:59:14.366Z,16.27
2023-01-13T11:02:03.934Z,17.20
2023-01-13T11:04:39.817Z,16.23
2023-01-13T11:07:19.652Z,17.23
2023-01-13T11:09:47.367Z,18.23
2023-01-13T11:12:35.779Z,18.73
2023-01-13T11:15:05.580Z,17.37
2023-01-13T11:18:18.528Z,16.83
2023-01-13T11:20:47.444Z,16.57
2023-01-13T11:23:27.590Z,16.70
2023-01-13T11:25:58.610Z,15.10
2023-01-13T11:28:35.136Z,16.23
2023-01-13T11:31:25.618Z,16.33
2023-01-13T11:34:24.371Z,14.87
2023-01-13T11:36:56.072Z,16.17
2023-01-13T11:39:54.158Z,16.60
2023-01-13T11:45:21.567Z,15.53
2023-01-13T11:47:52.042Z,15.57
2023-01-13T11:50:51.330Z,16.17
2023-01-13T11:53:52.944Z,15.77
2023-01-13T11:56:42.354Z,17.67
2023-01-13T11:59:19.388Z,17.83
2023-01-13T12:01:54.934Z,17.52
2023-01-13T12:04:24.976Z,16.07
2023-01-13T12:07:13.952Z,15.60
2023-01-13T12:09:49.942Z,16.10
2023-01-13T12:12:38.218Z,16.03
2023-01-13T12:15:21.810Z,13.83
2023-01-13T12:18:30.784Z,16.17
2023-01-13T12:21:19.341Z,15.27
2023-01-13T12:24:05.004Z,16.23
2023-01-13T12:26:35.832Z,15.20
2023-01-13T12:29:08.998Z,16.20
2023-01-13T12:31:37.922Z,16.30
2023-01-13T12:34:20.605Z,16.03
2023-01-13T12:37:06.270Z,15.40
2023-01-13T12:39:52.483Z,14.97
2023-01-13T12:43:02.813Z,14.67
2023-01-13T12:45:30.931Z,14.37
2023-01-13T12:47:58.929Z,13.40
2023-01-13T12:50:25.702Z,14.97
2023-01-13T12:52:59.930Z,13.93
2023-01-13T12:55:35.974Z,13.67
2023-01-13T12:58:03.414Z,13.23
2023-01-13T13:00:42.369Z,13.63
2023-01-13T13:03:17.742Z,13.50
2023-01-13T13:05:51.234Z,13.63
2023-01-13T13:08:45.335Z,14.23
2023-01-13T13:11:35.507Z,13.90
2023-01-13T13:14:04.437Z,13.30
2023-01-13T13:16:31.278Z,13.80
2023-01-13T13:19:20.237Z,13.30
2023-01-13T13:22:12.494Z,13.13
2023-01-13T13:25:02.130Z,12.73
2023-01-13T13:27:32.470Z,14.17
2023-01-13T13:30:03.257Z,13.67
2023-01-13T13:32:55.468Z,14.53
2023-01-13T13:35:44.923Z,13.70
2023-01-13T13:38:49.562Z,13.07
2023-01-13T13:41:45.559Z,13.73
2023-01-13T13:44:37.109Z,14.40
2023-01-13T13:47:06.514Z,14.33
2023-01-13T13:49:58.480Z,15.30
2023-01-13T13:53:05.536Z,13.93
2023-01-13T13:55:35.834Z,14.33
2023-01-13T13:58:08.891Z,14.03
2023-01-13T14:01:18.898Z,13.93
2023-01-13T14:03:47.213Z,13.17
2023-01-13T14:06:22.168Z,12.73
2023-01-13T14:08:50.853Z,13.83
2023-01-13T14:11:27.709Z,13.27
2023-01-13T14:14:03.767Z,14.03
2023-01-13T14:16:32.382Z,13.23
2023-01-13T14:19:01.693Z,13.77
2023-01-13T14:21:30.011Z,13.37
2023-01-13T14:24:16.417Z,12.90
2023-01-13T14:26:53.069Z,13.37
2023-01-13T14:29:23.160Z,13.02
2023-01-13T14:31:51.783Z,12.57
2023-01-13T14:34:32.439Z,11.53
2023-01-13T14:37:01.382Z,11.00
2023-01-13T14:39:38.790Z,11.00
2023-01-13T14:42:12.338Z,10.90
2023-01-13T14:44:39.762Z,10.77
2023-01-13T14:47:17.137Z,10.80
2023-01-13T14:50:08.333Z,10.65
2023-01-13T14:52:37.644Z,10.97
2023-01-13T14:55:33.882Z,11.53
2023-01-13T14:58:22.355Z,12.77
2023-01-13T15:00:50.946Z,11.73
2023-01-13T15:03:19.881Z,11.70
2023-01-13T15:06:11.503Z,10.70
2023-01-13T15:08:39.113Z,11.20
2023-01-13T15:11:06.623Z,11.60
2023-01-13T15:14:09.224Z,10.70
2023-01-13T15:16:37.058Z,10.53
2023-01-13T15:19:04.856Z,10.10
2023-01-13T15:21:32.451Z,10.50
2023-01-13T15:23:59.947Z,11.93
2023-01-13T15:26:28.033Z,10.83
2023-01-13T15:28:55.886Z,11.60
2023-01-13T15:31:23.582Z,10.37
2023-01-13T15:33:51.430Z,11.83
2023-01-13T15:36:27.354Z,11.13
2023-01-13T15:38:55.034Z,12.40
2023-01-13T15:41:43.260Z,12.67
2023-01-13T15:44:32.320Z,12.73
2023-01-13T15:47:00.958Z,12.77
2023-01-13T15:49:37.705Z,13.53
2023-01-13T15:52:12.393Z,14.43
2023-01-13T15:54:40.515Z,14.40
2023-01-13T15:57:12.527Z,19.83
2023-01-13T15:59:40.705Z,16.80
2023-01-13T16:02:12.554Z,22.97
2023-01-13T16:04:43.222Z,19.73
2023-01-13T16:07:14.040Z,18.60
2023-01-13T16:09:42.010Z,17.13
2023-01-13T16:12:09.870Z,17.63
2023-01-13T16:14:37.957Z,16.30
2023-01-13T16:17:40.864Z,18.57
2023-01-13T16:20:15.874Z,17.43
2023-01-13T16:22:43.449Z,15.10
2023-01-13T16:25:16.467Z,14.83
2023-01-13T16:27:44.667Z,15.33
2023-01-13T16:30:50.005Z,16.17
2023-01-13T16:33:17.805Z,21.47
2023-01-13T16:36:10.598Z,22.47
2023-01-13T16:38:33.908Z,22.77
2023-01-13T16:41:01.788Z,31.20
2023-01-13T16:43:29.980Z,30.37
2023-01-13T16:45:58.483Z,26.47
2023-01-13T16:48:25.914Z,26.53
2023-01-13T16:50:54.226Z,22.13
2023-01-13T16:53:22.319Z,18.93
2023-01-13T16:55:50.459Z,18.80
2023-01-13T16:58:18.922Z,19.73
2023-01-13T17:00:47.071Z,20.53
2023-01-13T17:03:16.782Z,19.20
2023-01-13T17:05:46.728Z,17.90
2023-01-13T17:08:36.242Z,19.37
2023-01-13T17:11:04.395Z,20.70
2023-01-13T17:13:32.672Z,20.97
2023-01-13T17:16:00.814Z,19.03
2023-01-13T17:18:29.357Z,19.77
2023-01-13T17:20:58.909Z,19.50
2023-01-13T17:23:26.302Z,21.57
2023-01-13T17:25:54.790Z,19.70
2023-01-13T17:28:22.924Z,20.00
2023-01-13T17:30:51.196Z,19.80
2023-01-13T17:33:19.456Z,20.37
2023-01-13T17:35:47.551Z,21.53
2023-01-13T17:38:17.800Z,21.00
2023-01-13T17:40:45.889Z,20.47
2023-01-13T17:43:14.224Z,17.03
2023-01-13T17:45:44.759Z,16.57
2023-01-13T17:48:13.009Z,16.47
2023-01-13T17:50:46.853Z,16.57
2023-01-13T17:53:15.123Z,16.80
2023-01-13T17:55:49.399Z,17.40
2023-01-13T17:58:17.850Z,17.20
2023-01-13T18:00:46.687Z,18.53
2023-01-13T18:03:15.689Z,17.87
2023-01-13T18:05:44.261Z,19.70
2023-01-13T18:08:12.364Z,18.47
2023-01-13T18:10:40.409Z,18.27
2023-01-13T18:13:09.984Z,18.43
2023-01-13T18:15:38.620Z,17.30
2023-01-13T18:18:06.506Z,18.03
2023-01-13T18:20:52.640Z,19.73
2023-01-13T18:23:39.505Z,21.87
2023-01-13T18:26:38.101Z,22.17
2023-01-13T18:29:05.952Z,22.93
2023-01-13T18:31:34.207Z,23.10
2023-01-13T18:34:02.527Z,22.63
2023-01-13T18:36:31.302Z,23.60
2023-01-13T18:38:59.667Z,23.27
2023-01-13T18:41:45.895Z,22.67
2023-01-13T18:44:13.676Z,19.97
2023-01-13T18:46:43.942Z,18.50
2023-01-13T18:49:11.984Z,23.13
2023-01-13T18:51:40.037Z,23.60
2023-01-13T18:54:08.296Z,24.47
2023-01-13T18:56:36.597Z,22.87
2023-01-13T18:59:04.202Z,22.73
2023-01-13T19:01:32.156Z,24.60
2023-01-13T19:04:02.624Z,25.20
2023-01-13T19:06:32.728Z,23.47
2023-01-13T19:09:08.323Z,21.70
2023-01-13T19:11:38.756Z,21.27
2023-01-13T19:14:06.932Z,21.33
2023-01-13T19:16:35.603Z,24.00
2023-01-13T19:19:03.364Z,21.47
2023-01-13T19:21:31.604Z,22.77
2023-01-13T19:23:59.260Z,21.80
2023-01-13T19:26:27.477Z,23.37
2023-01-13T19:28:55.566Z,23.27
2023-01-13T19:31:23.851Z,23.53
2023-01-13T19:33:51.604Z,21.87
2023-01-13T19:36:19.577Z,23.30
2023-01-13T19:38:48.181Z,24.20
2023-01-13T19:41:33.896Z,23.37
2023-01-13T19:44:20.422Z,22.03
2023-01-13T19:46:48.495Z,22.30
2023-01-13T19:49:15.638Z,22.73
2023-01-13T19:51:44.278Z,21.53
2023-01-13T19:54:16.214Z,21.60
2023-01-13T19:56:43.983Z,21.10
2023-01-13T19:59:13.549Z,21.43
2023-01-13T20:01:41.380Z,21.63
2023-01-13T20:04:14.390Z,19.93
2023-01-13T20:06:42.077Z,20.50
2023-01-13T20:09:11.013Z,19.30
2023-01-13T20:11:40.321Z,20.10
2023-01-13T20:14:08.180Z,18.47
2023-01-13T20:16:36.203Z,18.63
2023-01-13T20:19:04.305Z,19.67
2023-01-13T20:21:31.990Z,21.00
2023-01-13T20:23:59.894Z,20.13
2023-01-13T20:26:28.454Z,19.27
2023-01-13T20:28:56.615Z,18.47
2023-01-13T20:31:24.585Z,18.10
2023-01-13T20:33:53.390Z,17.73
2023-01-13T20:36:31.764Z,17.50
2023-01-13T20:39:02.417Z,17.63
2023-01-13T20:41:48.581Z,18.00
2023-01-13T20:44:19.623Z,15.70
2023-01-13T20:46:50.512Z,15.77
2023-01-13T20:49:27.093Z,18.30
2023-01-13T20:51:55.788Z,16.65
2023-01-13T20:54:23.836Z,17.00
2023-01-13T20:56:52.273Z,17.17
2023-01-13T20:59:20.724Z,16.20
2023-01-13T21:01:48.629Z,16.97
2023-01-13T21:04:16.502Z,17.73
2023-01-13T21:06:44.184Z,17.37
2023-01-13T21:09:12.293Z,15.90
2023-01-13T21:11:58.470Z,16.07
2023-01-13T21:14:45.249Z,16.33
2023-01-13T21:17:39.254Z,15.75
2023-01-13T21:20:12.855Z,15.53
2023-01-13T21:22:42.356Z,15.37
2023-01-13T21:25:12.443Z,16.07
2023-01-13T21:27:40.138Z,15.00
2023-01-13T21:30:14.799Z,15.83
2023-01-13T21:32:42.501Z,16.33
2023-01-13T21:35:12.180Z,16.47
2023-01-13T21:37:39.433Z,15.93
2023-01-13T21:40:10.879Z,15.70
2023-01-13T21:42:56.482Z,15.57
2023-01-13T21:45:42.881Z,16.37
2023-01-13T21:48:10.048Z,14.40
2023-01-13T21:50:40.514Z,15.00
2023-01-13T21:53:08.100Z,14.90
2023-01-13T21:55:35.709Z,15.30
2023-01-13T21:58:11.899Z,14.20
2023-01-13T22:00:43.668Z,14.82
2023-01-13T22:03:12.011Z,15.20
2023-01-13T22:05:39.918Z,14.57
2023-01-13T22:08:08.639Z,15.23
2023-01-13T22:10:36.814Z,14.43
2023-01-13T22:13:28.651Z,14.13
2023-01-13T22:15:57.080Z,14.20
2023-01-13T22:18:25.307Z,16.27
2023-01-13T22:20:54.008Z,15.90
2023-01-13T22:23:22.247Z,16.03
2023-01-13T22:25:50.459Z,16.10
2023-01-13T22:28:24.196Z,16.33
2023-01-13T22:30:53.669Z,14.37
2023-01-13T22:33:21.773Z,15.40
2023-01-13T22:35:56.750Z,16.27
2023-01-13T22:38:24.950Z,13.97
2023-01-13T22:41:00.114Z,15.03
2023-01-13T22:43:31.085Z,13.87
2023-01-13T22:46:23.081Z,14.10
2023-01-13T22:48:54.466Z,12.60
2023-01-13T22:51:22.999Z,14.63
2023-01-13T22:53:51.351Z,15.03
2023-01-13T22:56:21.252Z,14.17
2023-01-13T22:58:49.487Z,14.17
2023-01-13T23:01:18.078Z,14.77
2023-01-13T23:03:47.704Z,14.37
2023-01-13T23:06:15.928Z,13.43
2023-01-13T23:08:44.501Z,14.17
2023-01-13T23:11:13.631Z,14.40
2023-01-13T23:13:42.984Z,16.07
2023-01-13T23:16:15.656Z,16.00
2023-01-13T23:18:48.165Z,15.47
2023-01-13T23:21:38.037Z,15.07
2023-01-13T23:24:07.257Z,15.47
2023-01-13T23:26:34.681Z,14.50
2023-01-13T23:29:03.489Z,15.07
2023-01-13T23:31:31.862Z,15.47
2023-01-13T23:34:01.031Z,15.03
2023-01-13T23:36:29.212Z,15.57
2023-01-13T23:38:58.112Z,15.53
2023-01-13T23:41:27.069Z,14.97
2023-01-13T23:44:15.472Z,14.33
2023-01-13T23:46:43.486Z,13.67
2023-01-13T23:49:11.899Z,14.20
2023-01-13T23:51:40.114Z,13.87
2023-01-13T23:54:08.277Z,13.90
2023-01-13T23:56:39.507Z,13.43
2023-01-13T23:59:07.757Z,15.47
